Airfield :
LOGIN :

Register | Disclaimer

   EN    FR    IT 

 










Legend :    VFR   Marginal VFR   IFR   Intensive IFR   Very Intensive IFR
Visi :
Ceiling :
>= 8 km
>= 3000ft
5 to 8 km
1000 to 3000 ft
1500m to 5 km
500 to 1000 ft
800 to 1500m
200 to 500 ft
< 800m
< 200 ft
Symbols :   Thunderstorms  Fog  Heavy snow  Heavy precipitations  Wind > 20 kt
SIGMETs :     Misc.  Thunderstorms  Icing  Turbulence  Mountain Waves  Volcanic Ashes







- Airport Elevation : 600 ft
- IATA code : VIE


LOWW - Vienna Schwechat

CURRENT METAR :
  • 180850Z VRB03KT 9999 FEW040 BKN280 24/14 Q1018 NOSIG

EXPIRED METARs :
  • 180820Z 12004KT 060V210 9999 FEW038 BKN280 23/14 Q1018 NOSIG
  • 180750Z VRB03KT CAVOK 23/14 Q1018 NOSIG
  • 180720Z 11004KT 070V180 CAVOK 22/14 Q1018 NOSIG
  • 180650Z VRB02KT CAVOK 21/14 Q1018 NOSIG
  • 180620Z VRB02KT CAVOK 20/14 Q1018 NOSIG

TAF TAF LOWW
Valid from the 18 at 09:00 until the 19 at 15:00 UTC


180815Z 1809/1915 14007KT CAVOK TX28/1913Z TN18/1903Z
BECMG 1909/1911 16012KT 9999 FEW050 FEW060CB
PROB40
TEMPO 1912/1915 VRB15KT TSRA SCT040CB BKN050
No reported NOTAMs for that airfield.



MET'MAP, your aeronautical weather chart ! - Copyright ORBIFLY December 2007 - Disclaimer

ORBIFLY MET'MAP TEAM :

Programming & Development : Alexandra Zaïnal
Concept & Development : Baudouin d'Aumeries
Co-Development & Prog : Marc-Olivier Méhu
Technical & hardware support : Manuel Goepfert

Contact : metmap@orbifly.com




SOURCES & CREDITS :

   NOAA